Time;durP1;ratioP1;P1;durP2;ratioP2;P2;SDS_P1;SDS_P2;PMS_P1;PMS_P2;Temp;Humidity;BMP_temperature;BMP_pressure;BME280_temperature;BME280_humidity;BME280_pressure;Samples;Min_cycle;Max_cycle;Signal;HPM_P1;HPM_P2
2021/12/15 00:02:04;;;;;;;19.65;7.75;;;;;;;;;;5032201;28;20128;-63
2021/12/15 00:04:31;;;;;;;33.60;9.73;;;;;;;;;;5038510;28;20132;-64
2021/12/15 00:06:57;;;;;;;41.78;9.48;;;;;;;;;;5036485;28;20083;-64
2021/12/15 00:09:31;;;;;;;32.72;8.68;;;;;;;;;;5035592;28;20044;-63
2021/12/15 00:11:57;;;;;;;28.77;8.67;;;;;;;;;;5034518;28;20060;-64
2021/12/15 00:14:23;;;;;;;26.67;9.15;;;;;;;;;;5033821;28;20890;-64
2021/12/15 00:16:50;;;;;;;31.25;9.80;;;;;;;;;;5037994;28;20067;-63
2021/12/15 00:19:17;;;;;;;40.97;11.48;;;;;;;;;;5032884;28;20445;-63
2021/12/15 00:21:43;;;;;;;40.63;10.45;;;;;;;;;;5035261;28;20278;-64
2021/12/15 00:24:11;;;;;;;37.67;11.73;;;;;;;;;;5030930;28;20049;-64
2021/12/15 00:26:37;;;;;;;31.58;11.50;;;;;;;;;;5039658;28;20485;-64
2021/12/15 00:29:05;;;;;;;42.50;11.67;;;;;;;;;;5040093;28;20588;-63
2021/12/15 00:31:38;;;;;;;48.42;12.40;;;;;;;;;;5035890;28;20288;-64
2021/12/15 00:34:07;;;;;;;40.33;12.05;;;;;;;;;;5037511;28;20157;-64
2021/12/15 00:36:34;;;;;;;56.10;13.68;;;;;;;;;;5042646;28;20057;-63
2021/12/15 00:39:07;;;;;;;54.50;12.90;;;;;;;;;;5052491;28;20076;-62
2021/12/15 00:41:34;;;;;;;50.30;12.55;;;;;;;;;;5054687;28;20572;-63
2021/12/15 00:44:00;;;;;;;60.08;12.88;;;;;;;;;;5079477;28;20154;-62
2021/12/15 00:46:27;;;;;;;41.40;11.45;;;;;;;;;;5077479;28;20144;-63
2021/12/15 00:48:54;;;;;;;39.15;11.43;;;;;;;;;;5079826;28;20136;-62
2021/12/15 00:51:20;;;;;;;48.58;10.60;;;;;;;;;;5078892;28;20079;-62
2021/12/15 00:53:47;;;;;;;49.80;10.82;;;;;;;;;;5079900;28;20113;-62
2021/12/15 00:56:14;;;;;;;57.38;12.15;;;;;;;;;;5079067;28;20131;-63
2021/12/15 00:58:43;;;;;;;66.55;13.25;;;;;;;;;;5078088;28;20128;-62
2021/12/15 01:01:17;;;;;;;52.53;11.23;;;;;;;;;;5061555;28;20424;-62
2021/12/15 01:03:44;;;;;;;46.35;12.98;;;;;;;;;;5060402;28;20055;-63
2021/12/15 01:06:12;;;;;;;52.03;13.63;;;;;;;;;;5054026;28;20083;-62
2021/12/15 01:08:42;;;;;;;46.45;11.50;;;;;;;;;;5056309;28;20319;-62
2021/12/15 01:11:21;;;;;;;42.83;11.85;;;;;;;;;;5056199;28;20135;-63
2021/12/15 01:22:17;;;;;;;37.95;11.23;;;;;;;;;;5056018;28;20532;-62
2021/12/15 01:24:52;;;;;;;45.55;11.60;;;;;;;;;;5057952;28;20139;-63
2021/12/15 01:27:19;;;;;;;44.60;10.73;;;;;;;;;;5073536;28;20222;-62
2021/12/15 01:29:45;;;;;;;46.03;11.50;;;;;;;;;;5079714;28;20075;-63
2021/12/15 01:32:12;;;;;;;;;;;;;;;;;;5075085;28;20080;-62
2021/12/15 01:34:39;;;;;;;39.58;10.07;;;;;;;;;;5078343;28;20458;-62
2021/12/15 01:37:06;;;;;;;48.13;11.25;;;;;;;;;;5078012;28;20056;-62
2021/12/15 01:39:33;;;;;;;71.63;12.43;;;;;;;;;;5078132;28;20075;-62
2021/12/15 01:41:59;;;;;;;36.47;12.27;;;;;;;;;;5077691;28;20590;-63
2021/12/15 01:47:01;;;;;;;49.53;12.52;;;;;;;;;;5075329;28;20053;-62
2021/12/15 01:49:31;;;;;;;54.35;13.02;;;;;;;;;;5078624;28;20187;-62
2021/12/15 01:52:00;;;;;;;83.80;14.43;;;;;;;;;;5077929;28;20570;-63
2021/12/15 01:54:27;;;;;;;75.45;13.75;;;;;;;;;;5078474;28;20137;-63
2021/12/15 01:56:53;;;;;;;65.95;14.35;;;;;;;;;;5078606;28;20056;-63
2021/12/15 01:59:21;;;;;;;53.13;14.27;;;;;;;;;;5076988;28;20050;-62
2021/12/15 02:01:48;;;;;;;57.47;13.70;;;;;;;;;;5077823;28;20068;-63
2021/12/15 02:04:18;;;;;;;70.70;13.65;;;;;;;;;;5080093;28;20047;-62
2021/12/15 02:06:48;;;;;;;63.50;12.73;;;;;;;;;;5076975;28;20134;-62
2021/12/15 02:09:22;;;;;;;75.45;13.10;;;;;;;;;;5075435;28;20036;-63
2021/12/15 02:11:50;;;;;;;76.70;13.30;;;;;;;;;;5074936;28;20049;-63
2021/12/15 02:14:16;;;;;;;50.00;11.23;;;;;;;;;;5079056;28;20040;-63
2021/12/15 02:16:42;;;;;;;71.15;13.35;;;;;;;;;;5077599;28;20323;-63
2021/12/15 02:19:15;;;;;;;53.15;11.60;;;;;;;;;;5083044;28;20049;-63
2021/12/15 02:21:42;;;;;;;67.97;14.27;;;;;;;;;;5082536;28;20086;-62
2021/12/15 02:24:09;;;;;;;52.15;11.55;;;;;;;;;;5078396;28;20131;-62
2021/12/15 02:26:48;;;;;;;61.28;11.30;;;;;;;;;;5060679;28;20132;-62
2021/12/15 02:29:18;;;;;;;60.70;11.30;;;;;;;;;;5060158;28;20048;-62
2021/12/15 02:37:25;;;;;;;52.15;9.80;;;;;;;;;;5055995;28;20058;-62
2021/12/15 02:40:05;;;;;;;71.45;11.48;;;;;;;;;;5060187;28;20048;-62
2021/12/15 02:42:36;;;;;;;62.30;11.02;;;;;;;;;;5057229;28;20128;-62
2021/12/15 02:45:04;;;;;;;58.17;10.05;;;;;;;;;;5059974;28;20140;-63
2021/12/15 02:47:32;;;;;;;62.10;11.13;;;;;;;;;;5060575;28;20045;-63
2021/12/15 02:49:59;;;;;;;62.35;10.30;;;;;;;;;;5064380;28;20567;-63
2021/12/15 02:52:26;;;;;;;63.60;9.90;;;;;;;;;;5081012;28;20508;-63
2021/12/15 02:54:53;;;;;;;65.88;9.88;;;;;;;;;;5080731;28;20127;-62
2021/12/15 02:57:26;;;;;;;43.92;8.73;;;;;;;;;;5078454;28;20560;-62
2021/12/15 03:05:17;;;;;;;54.42;8.65;;;;;;;;;;5078951;28;21544;-63
2021/12/15 03:07:54;;;;;;;46.75;8.73;;;;;;;;;;5083128;28;20124;-62
2021/12/15 03:16:00;;;;;;;81.63;9.98;;;;;;;;;;5055066;28;20140;-63
2021/12/15 03:18:27;;;;;;;42.88;8.10;;;;;;;;;;5080682;28;20075;-62
2021/12/15 03:20:59;;;;;;;56.55;9.98;;;;;;;;;;5063463;28;20518;-62
2021/12/15 03:23:37;;;;;;;50.97;7.38;;;;;;;;;;5078614;28;20079;-63
2021/12/15 03:26:05;;;;;;;59.33;9.40;;;;;;;;;;5080094;28;20155;-63
2021/12/15 03:34:45;;;;;;;69.13;9.20;;;;;;;;;;5078391;28;20140;-62
2021/12/15 03:39:47;;;;;;;77.75;10.25;;;;;;;;;;5055600;28;20064;-63
2021/12/15 03:42:17;;;;;;;66.72;8.73;;;;;;;;;;5054165;28;20784;-63
2021/12/15 03:44:44;;;;;;;60.28;9.25;;;;;;;;;;5053122;28;20600;-62
2021/12/15 03:47:24;;;;;;;62.00;9.13;;;;;;;;;;5058133;28;20040;-63
2021/12/15 03:49:51;;;;;;;56.58;9.73;;;;;;;;;;5059487;28;20152;-62
2021/12/15 03:52:25;;;;;;;63.75;8.75;;;;;;;;;;5063785;28;20543;-62
2021/12/15 03:54:52;;;;;;;73.57;11.02;;;;;;;;;;5059530;28;20080;-63
2021/12/15 03:57:20;;;;;;;50.38;9.15;;;;;;;;;;5056089;28;20098;-62
2021/12/15 03:59:56;;;;;;;50.70;8.57;;;;;;;;;;5059603;28;20079;-63
2021/12/15 04:02:23;;;;;;;58.60;8.38;;;;;;;;;;5055337;28;20179;-63
2021/12/15 04:04:50;;;;;;;55.20;10.77;;;;;;;;;;5054216;28;20512;-63
2021/12/15 04:07:23;;;;;;;55.53;10.73;;;;;;;;;;5054984;28;20048;-62
2021/12/15 04:09:50;;;;;;;63.22;9.23;;;;;;;;;;5053942;28;20052;-62
2021/12/15 04:12:17;;;;;;;45.65;9.80;;;;;;;;;;5054853;28;20178;-63
2021/12/15 04:14:55;;;;;;;75.60;11.82;;;;;;;;;;5054026;28;20497;-63
2021/12/15 04:17:40;;;;;;;61.47;8.95;;;;;;;;;;5056495;28;20423;-63
2021/12/15 04:20:10;;;;;;;57.50;10.48;;;;;;;;;;5055306;28;20123;-62
2021/12/15 04:22:36;;;;;;;73.93;10.48;;;;;;;;;;5055072;28;20144;-62
2021/12/15 04:25:07;;;;;;;57.53;10.23;;;;;;;;;;5059966;28;20080;-62
2021/12/15 04:27:50;;;;;;;71.75;10.43;;;;;;;;;;5056822;28;20567;-63
2021/12/15 04:30:16;;;;;;;64.85;10.13;;;;;;;;;;5055703;28;20139;-63
2021/12/15 04:32:50;;;;;;;53.72;8.73;;;;;;;;;;5062435;28;20136;-63
2021/12/15 04:35:16;;;;;;;37.97;10.25;;;;;;;;;;5055970;28;20076;-63
2021/12/15 04:37:43;;;;;;;42.92;8.85;;;;;;;;;;5055303;28;20148;-63
2021/12/15 04:40:11;;;;;;;51.17;10.40;;;;;;;;;;5055829;28;20144;-63
2021/12/15 04:42:38;;;;;;;;;;;;;;;;;;5055731;28;20075;-62
2021/12/15 04:45:06;;;;;;;52.15;7.82;;;;;;;;;;5060405;28;20019;-62
2021/12/15 04:47:35;;;;;;;39.10;7.68;;;;;;;;;;5078923;28;20138;-63
2021/12/15 04:50:03;;;;;;;47.58;8.20;;;;;;;;;;5073627;28;20797;-63
2021/12/15 04:52:30;;;;;;;35.47;7.65;;;;;;;;;;5073950;28;20143;-63
2021/12/15 04:54:59;;;;;;;35.38;7.05;;;;;;;;;;5053758;28;20136;-63
2021/12/15 04:57:26;;;;;;;39.67;7.25;;;;;;;;;;5060571;28;20143;-62
2021/12/15 04:59:52;;;;;;;44.35;7.70;;;;;;;;;;5055125;28;20587;-62
2021/12/15 05:02:23;;;;;;;30.75;6.50;;;;;;;;;;5060266;28;20075;-63
2021/12/15 05:04:50;;;;;;;42.47;7.22;;;;;;;;;;5057663;28;20052;-63
2021/12/15 05:07:17;;;;;;;25.67;6.60;;;;;;;;;;5076707;28;20143;-63
2021/12/15 05:09:49;;;;;;;25.10;6.53;;;;;;;;;;5081788;28;20166;-63
2021/12/15 05:12:17;;;;;;;31.67;6.50;;;;;;;;;;5080845;28;20127;-63
2021/12/15 05:14:43;;;;;;;31.13;7.15;;;;;;;;;;5079579;28;20064;-63
2021/12/15 05:17:10;;;;;;;38.15;7.25;;;;;;;;;;5078186;28;20052;-63
2021/12/15 05:19:36;;;;;;;44.42;9.38;;;;;;;;;;5078830;28;20491;-62
2021/12/15 05:22:04;;;;;;;36.45;7.18;;;;;;;;;;5078964;28;20606;-63
2021/12/15 05:24:37;;;;;;;38.20;8.00;;;;;;;;;;5078874;28;20044;-63
2021/12/15 05:27:09;;;;;;;22.83;6.97;;;;;;;;;;5080172;28;20567;-63
2021/12/15 05:29:36;;;;;;;33.55;7.38;;;;;;;;;;5080565;28;20156;-62
2021/12/15 05:32:03;;;;;;;25.48;6.57;;;;;;;;;;5084849;28;20474;-63
2021/12/15 05:34:31;;;;;;;42.88;8.65;;;;;;;;;;5084055;28;20123;-63
2021/12/15 05:36:58;;;;;;;47.70;9.50;;;;;;;;;;5082556;28;20093;-62
2021/12/15 05:39:25;;;;;;;56.05;10.05;;;;;;;;;;5080347;28;22105;-62
2021/12/15 05:41:52;;;;;;;52.30;9.47;;;;;;;;;;5082301;28;20116;-62
2021/12/15 05:44:19;;;;;;;46.08;6.88;;;;;;;;;;5081062;28;20570;-62
2021/12/15 05:46:54;;;;;;;44.42;8.70;;;;;;;;;;5076459;28;20076;-63
2021/12/15 05:49:22;;;;;;;35.13;7.25;;;;;;;;;;5084160;28;20079;-63
2021/12/15 05:51:48;;;;;;;50.65;8.35;;;;;;;;;;5061894;28;20836;-63
2021/12/15 05:54:16;;;;;;;43.95;7.85;;;;;;;;;;5079288;28;20127;-62
2021/12/15 05:56:42;;;;;;;42.03;7.90;;;;;;;;;;5081133;28;20064;-62
2021/12/15 05:59:10;;;;;;;41.03;8.25;;;;;;;;;;5082755;28;20055;-63
2021/12/15 06:01:37;;;;;;;44.20;8.32;;;;;;;;;;5068718;28;20045;-63
2021/12/15 06:04:06;;;;;;;42.63;8.30;;;;;;;;;;5075103;28;20051;-62
2021/12/15 06:06:33;;;;;;;58.45;9.52;;;;;;;;;;5076709;28;20138;-63
2021/12/15 06:09:02;;;;;;;35.00;7.82;;;;;;;;;;5080185;28;20130;-62
2021/12/15 06:11:28;;;;;;;44.78;9.07;;;;;;;;;;5082478;28;20135;-62
2021/12/15 06:13:55;;;;;;;49.47;10.15;;;;;;;;;;5080536;28;20078;-63
2021/12/15 06:16:22;;;;;;;34.65;6.97;;;;;;;;;;5078030;28;20091;-63
2021/12/15 06:18:50;;;;;;;35.90;8.18;;;;;;;;;;5079193;28;20044;-63
2021/12/15 06:21:18;;;;;;;49.25;8.60;;;;;;;;;;5076488;28;20052;-63
2021/12/15 06:23:47;;;;;;;39.10;8.38;;;;;;;;;;5076755;28;20117;-63
2021/12/15 06:26:14;;;;;;;41.72;8.48;;;;;;;;;;5081177;28;20160;-63
2021/12/15 06:28:41;;;;;;;37.50;7.68;;;;;;;;;;5075866;28;20046;-63
2021/12/15 06:31:16;;;;;;;34.13;8.32;;;;;;;;;;5057860;28;20059;-63
2021/12/15 06:33:43;;;;;;;46.92;7.90;;;;;;;;;;5058629;28;20592;-63
2021/12/15 06:36:12;;;;;;;35.40;7.25;;;;;;;;;;5077574;28;20063;-62
2021/12/15 06:38:41;;;;;;;36.75;7.80;;;;;;;;;;5077053;28;20151;-63
2021/12/15 06:41:08;;;;;;;31.80;8.23;;;;;;;;;;5076502;28;20059;-63
2021/12/15 06:43:36;;;;;;;34.35;6.78;;;;;;;;;;5075972;28;20807;-63
2021/12/15 06:58:10;;;;;;;31.73;5.75;;;;;;;;;;5065819;28;20399;-63
2021/12/15 07:00:18;;;;;;;32.95;5.63;;;;;;;;;;5079460;28;20091;-63
2021/12/15 07:02:46;;;;;;;40.10;6.68;;;;;;;;;;5080792;28;20444;-62
2021/12/15 07:05:13;;;;;;;27.70;5.93;;;;;;;;;;5079524;28;20055;-63
2021/12/15 07:07:41;;;;;;;33.00;6.15;;;;;;;;;;5083615;28;20444;-63
2021/12/15 07:10:12;;;;;;;34.65;5.90;;;;;;;;;;5080169;28;20140;-63
2021/12/15 07:12:38;;;;;;;21.05;5.65;;;;;;;;;;5076381;28;20131;-63
2021/12/15 07:15:06;;;;;;;23.07;5.53;;;;;;;;;;5080754;28;20112;-63
2021/12/15 07:17:36;;;;;;;38.42;5.85;;;;;;;;;;5081696;28;20130;-63
2021/12/15 07:20:28;;;;;;;27.77;5.60;;;;;;;;;;5075827;28;20603;-63
2021/12/15 07:22:53;;;;;;;28.33;6.22;;;;;;;;;;5079416;28;20136;-63
2021/12/15 07:25:21;;;;;;;20.73;5.57;;;;;;;;;;5081201;28;20147;-62
2021/12/15 07:27:48;;;;;;;38.03;6.00;;;;;;;;;;5080224;28;20139;-63
2021/12/15 07:30:16;;;;;;;24.67;5.72;;;;;;;;;;5083677;28;20094;-63
2021/12/15 07:32:43;;;;;;;31.87;6.80;;;;;;;;;;5078724;28;20135;-63
2021/12/15 07:35:10;;;;;;;32.60;6.85;;;;;;;;;;5075060;28;20132;-63
2021/12/15 07:37:39;;;;;;;34.90;6.15;;;;;;;;;;5063760;28;20044;-63
2021/12/15 07:40:11;;;;;;;45.45;6.72;;;;;;;;;;5063272;28;20076;-62
2021/12/15 07:42:53;;;;;;;32.60;6.88;;;;;;;;;;5061194;28;20659;-63
2021/12/15 07:45:22;;;;;;;27.38;6.10;;;;;;;;;;5060731;28;20063;-63
2021/12/15 07:47:57;;;;;;;40.58;6.32;;;;;;;;;;5057820;28;20132;-63
2021/12/15 07:50:24;;;;;;;42.95;7.38;;;;;;;;;;5059808;28;20143;-63
2021/12/15 07:52:51;;;;;;;50.90;8.05;;;;;;;;;;5058921;28;20058;-63
2021/12/15 07:55:21;;;;;;;38.90;7.55;;;;;;;;;;5061985;28;20044;-63
2021/12/15 07:57:48;;;;;;;42.17;8.93;;;;;;;;;;5054005;28;20132;-63
2021/12/15 08:00:15;;;;;;;43.47;7.40;;;;;;;;;;5058894;28;20147;-62
2021/12/15 08:02:48;;;;;;;40.70;7.82;;;;;;;;;;5060011;28;20136;-63
2021/12/15 08:05:15;;;;;;;53.00;8.23;;;;;;;;;;5058045;28;20045;-63
2021/12/15 08:07:41;;;;;;;39.15;7.38;;;;;;;;;;5058835;28;20135;-63
2021/12/15 08:10:15;;;;;;;35.85;7.07;;;;;;;;;;5057782;28;20385;-63
2021/12/15 08:12:43;;;;;;;38.00;6.40;;;;;;;;;;5058832;28;20061;-63
2021/12/15 08:15:09;;;;;;;;;;;;;;;;;;5063492;28;20048;-63
2021/12/15 08:17:38;;;;;;;39.37;7.17;;;;;;;;;;5062135;28;19999;-63
2021/12/15 08:20:07;;;;;;;39.25;6.90;;;;;;;;;;5056530;28;20295;-62
2021/12/15 08:22:33;;;;;;;30.63;6.35;;;;;;;;;;5055738;28;20497;-62
2021/12/15 08:25:08;;;;;;;42.22;6.18;;;;;;;;;;5061681;28;20071;-63
2021/12/15 08:27:35;;;;;;;44.05;6.68;;;;;;;;;;5057783;28;20593;-63
2021/12/15 08:30:03;;;;;;;34.50;7.43;;;;;;;;;;5061237;28;20453;-63
2021/12/15 08:32:32;;;;;;;36.92;5.97;;;;;;;;;;5060874;28;20088;-63
2021/12/15 08:34:58;;;;;;;28.75;5.88;;;;;;;;;;5058529;28;20084;-63
2021/12/15 08:37:24;;;;;;;37.00;6.10;;;;;;;;;;5054797;28;20119;-63
2021/12/15 08:39:51;;;;;;;54.42;10.65;;;;;;;;;;5056259;28;20554;-63
2021/12/15 08:42:18;;;;;;;47.75;10.15;;;;;;;;;;5054304;28;20045;-63
2021/12/15 08:44:44;;;;;;;44.00;13.00;;;;;;;;;;5064593;28;20053;-63
2021/12/15 08:47:11;;;;;;;46.78;11.52;;;;;;;;;;5050479;28;20168;-63
2021/12/15 08:49:38;;;;;;;50.25;11.23;;;;;;;;;;5062228;28;20045;-63
2021/12/15 08:52:05;;;;;;;49.75;10.90;;;;;;;;;;5061371;28;20450;-63
2021/12/15 08:54:39;;;;;;;39.97;8.75;;;;;;;;;;5064273;28;20548;-62
2021/12/15 08:57:06;;;;;;;58.22;9.23;;;;;;;;;;5059941;28;20127;-63
2021/12/15 08:59:32;;;;;;;53.35;12.50;;;;;;;;;;5063274;28;20084;-63
2021/12/15 09:02:05;;;;;;;62.35;14.68;;;;;;;;;;5062625;28;20135;-63
2021/12/15 09:04:32;;;;;;;60.63;9.33;;;;;;;;;;5066180;28;20057;-63
2021/12/15 09:06:59;;;;;;;51.72;9.52;;;;;;;;;;5059530;28;20081;-63
2021/12/15 09:09:28;;;;;;;51.10;8.27;;;;;;;;;;5059195;28;20080;-63
2021/12/15 09:11:55;;;;;;;56.63;7.68;;;;;;;;;;5059084;28;20092;-63
2021/12/15 09:14:22;;;;;;;37.27;8.23;;;;;;;;;;5061196;28;20128;-63
2021/12/15 09:16:53;;;;;;;46.50;7.72;;;;;;;;;;5057979;28;20083;-63
2021/12/15 09:19:19;;;;;;;38.60;7.68;;;;;;;;;;5060984;28;20045;-63
2021/12/15 09:21:46;;;;;;;50.00;8.45;;;;;;;;;;5061668;28;20044;-63
2021/12/15 09:24:16;;;;;;;58.88;9.98;;;;;;;;;;5056704;28;20045;-63
2021/12/15 09:26:42;;;;;;;52.13;8.82;;;;;;;;;;5055088;28;20083;-63
2021/12/15 09:29:09;;;;;;;50.03;8.80;;;;;;;;;;5055097;28;20113;-62
2021/12/15 09:31:40;;;;;;;46.97;8.75;;;;;;;;;;5058987;28;20132;-63
2021/12/15 09:34:07;;;;;;;40.58;6.78;;;;;;;;;;5054451;28;20049;-63
2021/12/15 09:36:33;;;;;;;57.63;10.15;;;;;;;;;;5065837;28;20629;-63
2021/12/15 09:39:09;;;;;;;52.08;7.55;;;;;;;;;;5064280;28;20076;-62
2021/12/15 09:41:36;;;;;;;53.63;8.32;;;;;;;;;;5059679;28;20087;-63
2021/12/15 09:44:08;;;;;;;43.83;6.70;;;;;;;;;;5055837;28;20051;-63
2021/12/15 09:46:51;;;;;;;53.50;8.48;;;;;;;;;;5060210;28;20084;-63
2021/12/15 10:03:43;;;;;;;44.88;7.05;;;;;;;;;;5058582;28;20535;-63
2021/12/15 10:17:28;;;;;;;61.92;9.20;;;;;;;;;;5057007;28;20056;-63
2021/12/15 10:19:56;;;;;;;44.80;6.43;;;;;;;;;;5058306;28;20559;-63
2021/12/15 10:22:43;;;;;;;59.17;8.02;;;;;;;;;;5056592;28;20052;-63
2021/12/15 10:25:09;;;;;;;54.85;7.75;;;;;;;;;;5057641;28;20303;-64
2021/12/15 10:27:40;;;;;;;50.97;7.70;;;;;;;;;;5056429;28;20430;-63
2021/12/15 10:30:09;;;;;;;53.40;7.95;;;;;;;;;;5056572;28;20044;-63
2021/12/15 10:32:37;;;;;;;47.10;8.15;;;;;;;;;;5045136;28;20416;-63
2021/12/15 10:35:18;;;;;;;59.60;7.03;;;;;;;;;;5061828;28;20052;-63
2021/12/15 10:38:04;;;;;;;44.85;8.18;;;;;;;;;;5057338;28;20495;-63
2021/12/15 10:40:38;;;;;;;42.92;7.13;;;;;;;;;;5061755;28;20287;-63
2021/12/15 10:43:04;;;;;;;82.63;11.25;;;;;;;;;;5062932;28;20132;-63
2021/12/15 10:45:36;;;;;;;51.08;9.75;;;;;;;;;;5060992;28;20076;-63
2021/12/15 10:48:03;;;;;;;68.05;9.27;;;;;;;;;;5065263;28;20141;-63
2021/12/15 10:50:29;;;;;;;82.50;12.20;;;;;;;;;;5059425;28;20083;-63
2021/12/15 10:53:02;;;;;;;46.55;8.18;;;;;;;;;;5055941;28;20076;-63
2021/12/15 10:55:36;;;;;;;57.50;10.03;;;;;;;;;;5062517;28;20128;-63
2021/12/15 10:58:28;;;;;;;69.93;10.55;;;;;;;;;;5063390;28;20080;-63
2021/12/15 11:00:58;;;;;;;67.35;9.15;;;;;;;;;;5057979;28;20052;-63
2021/12/15 11:03:35;;;;;;;56.78;8.00;;;;;;;;;;5061909;28;20077;-63
2021/12/15 11:06:21;;;;;;;53.88;9.13;;;;;;;;;;5055187;28;20124;-63
2021/12/15 11:09:15;;;;;;;62.90;11.55;;;;;;;;;;5057742;28;20045;-63
2021/12/15 11:11:55;;;;;;;77.05;11.13;;;;;;;;;;5059838;28;20140;-63
2021/12/15 11:14:31;;;;;;;58.00;8.32;;;;;;;;;;5057337;28;20124;-63
2021/12/15 11:17:24;;;;;;;68.45;8.90;;;;;;;;;;5060623;28;20131;-63
2021/12/15 11:20:02;;;;;;;56.30;10.15;;;;;;;;;;5052685;28;20132;-63
2021/12/15 11:22:32;;;;;;;67.57;9.48;;;;;;;;;;5054399;28;20081;-63
2021/12/15 11:25:08;;;;;;;59.33;10.35;;;;;;;;;;5059721;28;20083;-63
2021/12/15 11:27:35;;;;;;;62.55;7.90;;;;;;;;;;5055100;28;20052;-63
2021/12/15 11:30:04;;;;;;;79.32;9.85;;;;;;;;;;5065392;28;20083;-63
2021/12/15 11:32:45;;;;;;;59.80;11.15;;;;;;;;;;5060592;28;20135;-63
2021/12/15 11:35:16;;;;;;;69.13;11.90;;;;;;;;;;5055905;28;20135;-64
2021/12/15 11:37:47;;;;;;;65.95;12.52;;;;;;;;;;5056071;28;20056;-63
2021/12/15 11:40:15;;;;;;;80.90;11.50;;;;;;;;;;5056173;28;20103;-63
2021/12/15 11:42:41;;;;;;;;;;;;;;;;;;5055986;28;20144;-63
2021/12/15 11:45:10;;;;;;;57.10;10.40;;;;;;;;;;5056503;28;20328;-63
2021/12/15 11:47:37;;;;;;;62.58;10.13;;;;;;;;;;5045857;28;20508;-63
2021/12/15 11:50:12;;;;;;;73.70;11.25;;;;;;;;;;5055972;28;20137;-63
2021/12/15 11:52:43;;;;;;;69.45;13.30;;;;;;;;;;5057675;28;20110;-63
2021/12/15 11:55:22;;;;;;;72.97;11.85;;;;;;;;;;5056990;28;20112;-63
2021/12/15 11:57:48;;;;;;;74.65;11.75;;;;;;;;;;5055038;28;20216;-63
2021/12/15 12:00:16;;;;;;;68.05;10.02;;;;;;;;;;5055219;28;20520;-63
2021/12/15 12:02:47;;;;;;;68.45;9.38;;;;;;;;;;5056501;28;20063;-63
2021/12/15 12:05:21;;;;;;;;;;;;;;;;;;5057419;28;20098;-63
2021/12/15 12:07:49;;;;;;;57.72;9.77;;;;;;;;;;5046467;28;20007;-63
2021/12/15 12:10:21;;;;;;;69.28;7.07;;;;;;;;;;5056932;28;20048;-63
2021/12/15 12:12:57;;;;;;;52.15;7.85;;;;;;;;;;5057948;28;20083;-63
2021/12/15 12:15:25;;;;;;;72.30;8.48;;;;;;;;;;5056587;28;20482;-63
2021/12/15 12:17:53;;;;;;;71.18;9.68;;;;;;;;;;5055297;28;20048;-63
2021/12/15 12:20:25;;;;;;;72.78;10.23;;;;;;;;;;5055733;28;20189;-63
2021/12/15 12:22:53;;;;;;;68.30;8.57;;;;;;;;;;5056498;28;20159;-63
2021/12/15 12:25:22;;;;;;;67.03;9.00;;;;;;;;;;5054965;28;20072;-63
2021/12/15 12:27:48;;;;;;;49.20;8.85;;;;;;;;;;5056510;28;20055;-63
2021/12/15 12:30:20;;;;;;;68.43;8.93;;;;;;;;;;5057143;28;20134;-63
2021/12/15 12:32:47;;;;;;;60.13;8.80;;;;;;;;;;5056718;28;20550;-63
2021/12/15 12:35:16;;;;;;;67.68;9.05;;;;;;;;;;5060589;28;20077;-63
2021/12/15 12:37:52;;;;;;;77.43;10.75;;;;;;;;;;5056688;28;20088;-63
2021/12/15 12:40:21;;;;;;;73.82;10.95;;;;;;;;;;5050589;28;20671;-63
2021/12/15 12:42:47;;;;;;;66.35;9.15;;;;;;;;;;5059596;28;20076;-63
2021/12/15 12:45:22;;;;;;;68.50;11.25;;;;;;;;;;5056699;28;20584;-63
2021/12/15 12:59:31;;;;;;;66.40;10.35;;;;;;;;;;5051697;28;20216;-63
2021/12/15 13:04:56;;;;;;;84.38;12.63;;;;;;;;;;5059154;28;20078;-63
2021/12/15 13:07:41;;;;;;;74.07;11.18;;;;;;;;;;5060034;28;20175;-63
2021/12/15 13:10:08;;;;;;;86.78;10.88;;;;;;;;;;5060340;28;20103;-63
2021/12/15 13:12:39;;;;;;;81.03;12.23;;;;;;;;;;5065376;28;20106;-63
2021/12/15 13:15:10;;;;;;;80.80;14.13;;;;;;;;;;5063748;28;20448;-63
2021/12/15 13:17:52;;;;;;;81.70;11.80;;;;;;;;;;5059665;28;20080;-63
2021/12/15 13:20:23;;;;;;;70.10;9.63;;;;;;;;;;5059626;28;20314;-63
2021/12/15 13:23:06;;;;;;;79.28;11.80;;;;;;;;;;5057681;28;20076;-63
2021/12/15 13:28:49;;;;;;;75.57;10.20;;;;;;;;;;5048659;28;20136;-64
2021/12/15 13:31:27;;;;;;;82.47;10.75;;;;;;;;;;5056628;28;20048;-63
2021/12/15 13:33:57;;;;;;;68.85;9.50;;;;;;;;;;5050355;28;20056;-63
2021/12/15 13:36:37;;;;;;;56.15;10.57;;;;;;;;;;5047656;28;20083;-63
2021/12/15 13:39:11;;;;;;;62.00;8.77;;;;;;;;;;5082893;28;20102;-63
2021/12/15 13:44:33;;;;;;;72.43;10.93;;;;;;;;;;5079529;28;20125;-63
2021/12/15 13:47:04;;;;;;;75.63;10.23;;;;;;;;;;5079770;28;20127;-63
2021/12/15 13:49:50;;;;;;;60.35;9.75;;;;;;;;;;5086945;28;20135;-63
2021/12/15 13:52:28;;;;;;;60.85;9.82;;;;;;;;;;5079453;28;20475;-63
2021/12/15 13:55:03;;;;;;;53.15;9.60;;;;;;;;;;5082613;28;20091;-63
2021/12/15 13:57:35;;;;;;;66.57;9.52;;;;;;;;;;5080517;28;20456;-63
2021/12/15 14:00:07;;;;;;;67.72;10.32;;;;;;;;;;5082756;28;20504;-63
2021/12/15 14:02:35;;;;;;;59.10;9.32;;;;;;;;;;5074428;28;20059;-63
2021/12/15 14:05:15;;;;;;;70.85;10.55;;;;;;;;;;5081253;28;20090;-63
2021/12/15 14:07:44;;;;;;;62.70;10.35;;;;;;;;;;5077472;28;20127;-63
2021/12/15 14:10:18;;;;;;;53.05;8.77;;;;;;;;;;5081251;28;20518;-63
2021/12/15 14:12:44;;;;;;;72.75;9.88;;;;;;;;;;5077574;28;20492;-63
2021/12/15 14:15:12;;;;;;;60.72;9.18;;;;;;;;;;5080468;28;20087;-63
2021/12/15 14:17:40;;;;;;;64.80;11.15;;;;;;;;;;5084955;28;20389;-63
2021/12/15 14:20:10;;;;;;;78.47;9.93;;;;;;;;;;5076016;28;20124;-63
2021/12/15 14:22:37;;;;;;;62.05;9.27;;;;;;;;;;5084955;28;20049;-63
2021/12/15 14:25:10;;;;;;;59.20;8.60;;;;;;;;;;5081976;28;20136;-63
2021/12/15 14:27:37;;;;;;;60.38;9.32;;;;;;;;;;5083041;28;20454;-63
2021/12/15 14:30:07;;;;;;;65.32;9.40;;;;;;;;;;5076401;28;20140;-63
2021/12/15 14:32:34;;;;;;;67.60;10.45;;;;;;;;;;5083163;28;20079;-63
2021/12/15 14:35:00;;;;;;;82.72;9.70;;;;;;;;;;5082217;28;20411;-63
2021/12/15 14:37:27;;;;;;;65.43;8.25;;;;;;;;;;5084768;28;20705;-63
2021/12/15 14:39:53;;;;;;;66.93;10.82;;;;;;;;;;5081724;28;20496;-63
2021/12/15 14:42:21;;;;;;;58.93;10.20;;;;;;;;;;5081968;28;20225;-63
2021/12/15 14:44:49;;;;;;;69.13;9.27;;;;;;;;;;5082209;28;20135;-63
2021/12/15 14:47:21;;;;;;;83.78;11.07;;;;;;;;;;5082473;28;20040;-63
2021/12/15 14:49:49;;;;;;;66.40;11.02;;;;;;;;;;5080828;28;20090;-63
2021/12/15 14:52:17;;;;;;;48.13;9.63;;;;;;;;;;5079931;28;20452;-63
2021/12/15 14:54:48;;;;;;;59.20;9.70;;;;;;;;;;5078510;28;20577;-63
2021/12/15 14:57:18;;;;;;;51.50;8.70;;;;;;;;;;5078392;28;20099;-63
2021/12/15 14:59:44;;;;;;;54.05;8.75;;;;;;;;;;5076057;28;20079;-63
2021/12/15 15:02:17;;;;;;;59.50;8.20;;;;;;;;;;5081495;28;20087;-63
2021/12/15 15:04:47;;;;;;;56.13;9.18;;;;;;;;;;5081579;28;20047;-63
2021/12/15 15:07:14;;;;;;;55.53;9.80;;;;;;;;;;5085669;28;20110;-63
2021/12/15 15:09:50;;;;;;;52.05;8.90;;;;;;;;;;5080349;28;20403;-63
2021/12/15 15:12:16;;;;;;;46.42;8.85;;;;;;;;;;5076645;28;20086;-63
2021/12/15 15:14:46;;;;;;;51.63;9.43;;;;;;;;;;5078681;28;20124;-63
2021/12/15 15:17:25;;;;;;;36.13;7.13;;;;;;;;;;5081594;28;20136;-63
2021/12/15 15:19:53;;;;;;;40.55;7.72;;;;;;;;;;5080366;28;20080;-63
2021/12/15 15:22:32;;;;;;;39.70;6.50;;;;;;;;;;5083013;28;20496;-63
2021/12/15 15:24:59;;;;;;;35.28;7.50;;;;;;;;;;5080995;28;20052;-63
2021/12/15 15:27:33;;;;;;;54.90;7.13;;;;;;;;;;5084777;28;20048;-63
2021/12/15 15:30:02;;;;;;;53.33;7.00;;;;;;;;;;5080334;28;20127;-63
2021/12/15 15:32:30;;;;;;;38.25;6.93;;;;;;;;;;5080531;28;20080;-63
2021/12/15 15:35:00;;;;;;;33.85;7.22;;;;;;;;;;5078746;28;20051;-63
2021/12/15 15:37:32;;;;;;;43.83;6.75;;;;;;;;;;5068965;28;20110;-63
2021/12/15 15:40:05;;;;;;;31.58;5.82;;;;;;;;;;5064015;28;20576;-63
2021/12/15 15:42:32;;;;;;;41.85;6.05;;;;;;;;;;5056004;28;20458;-63
2021/12/15 15:44:59;;;;;;;34.80;6.40;;;;;;;;;;5058493;28;20706;-63
2021/12/15 15:47:26;;;;;;;35.33;6.65;;;;;;;;;;5064675;28;20049;-63
2021/12/15 15:49:55;;;;;;;42.10;6.38;;;;;;;;;;5059107;28;20088;-63
2021/12/15 15:52:28;;;;;;;40.25;6.43;;;;;;;;;;5061123;28;20160;-63
2021/12/15 15:54:54;;;;;;;45.25;6.53;;;;;;;;;;5060579;28;21204;-63
2021/12/15 15:57:24;;;;;;;37.40;6.90;;;;;;;;;;5051531;28;20041;-63
2021/12/15 15:59:57;;;;;;;45.10;7.07;;;;;;;;;;5060391;28;20136;-63
2021/12/15 16:02:23;;;;;;;37.83;7.38;;;;;;;;;;5054998;28;20722;-63
2021/12/15 16:04:50;;;;;;;47.28;7.80;;;;;;;;;;5060118;28;20076;-63
2021/12/15 16:07:23;;;;;;;41.63;6.18;;;;;;;;;;5057905;28;20094;-63
2021/12/15 16:09:50;;;;;;;50.92;6.15;;;;;;;;;;5056140;28;20084;-63
2021/12/15 16:12:17;;;;;;;41.65;6.68;;;;;;;;;;5049763;28;20085;-63
2021/12/15 16:14:48;;;;;;;38.08;5.90;;;;;;;;;;5057593;28;20048;-63
2021/12/15 16:17:25;;;;;;;42.22;6.00;;;;;;;;;;5057547;28;20044;-63